createdAt,value
2019-01-18T00:01:55.628Z,50.10
2019-01-18T00:04:25.544Z,58.03
2019-01-18T00:06:55.453Z,58.40
2019-01-18T00:09:25.489Z,56.73
2019-01-18T00:11:55.385Z,50.10
2019-01-18T00:14:25.300Z,50.97
2019-01-18T00:16:55.210Z,52.23
2019-01-18T00:19:25.512Z,42.57
2019-01-18T00:21:55.428Z,47.77
2019-01-18T00:24:25.534Z,41.87
2019-01-18T00:26:55.453Z,42.47
2019-01-18T00:29:29.581Z,35.87
2019-01-18T00:31:57.245Z,36.77
2019-01-18T00:34:27.258Z,33.90
2019-01-18T00:36:57.167Z,33.07
2019-01-18T00:39:27.121Z,31.60
2019-01-18T00:41:57.439Z,28.80
2019-01-18T00:44:27.697Z,32.73
2019-01-18T00:46:57.610Z,32.23
2019-01-18T00:49:27.524Z,30.33
2019-01-18T00:51:57.730Z,26.13
2019-01-18T00:54:27.939Z,27.13
2019-01-18T00:56:57.855Z,25.70
2019-01-18T00:59:27.770Z,26.73
2019-01-18T01:01:57.678Z,28.23
2019-01-18T01:04:27.594Z,27.87
2019-01-18T01:06:58.034Z,23.93
2019-01-18T01:09:28.305Z,24.20
2019-01-18T01:11:58.216Z,26.10
2019-01-18T01:14:28.129Z,20.33
2019-01-18T01:16:58.144Z,23.70
2019-01-18T01:19:28.350Z,23.53
2019-01-18T01:21:58.266Z,27.23
2019-01-18T01:24:28.372Z,23.67
2019-01-18T01:26:58.682Z,18.97
2019-01-18T01:29:28.599Z,19.10
2019-01-18T01:31:58.505Z,20.37
2019-01-18T01:34:28.421Z,22.10
2019-01-18T01:36:58.340Z,21.37
2019-01-18T01:39:28.858Z,23.90
2019-01-18T01:41:58.951Z,22.83
2019-01-18T01:44:29.063Z,24.90
2019-01-18T01:46:58.970Z,24.23
2019-01-18T01:49:29.082Z,26.17
2019-01-18T01:51:58.996Z,27.03
2019-01-18T01:54:28.907Z,25.93
2019-01-18T01:56:58.855Z,28.80
2019-01-18T01:59:29.030Z,24.17
2019-01-18T02:01:58.946Z,26.30
2019-01-18T02:04:28.861Z,26.53
2019-01-18T02:06:58.770Z,21.60
2019-01-18T02:09:28.688Z,39.07
2019-01-18T02:11:58.696Z,31.23
2019-01-18T02:14:28.612Z,20.23
2019-01-18T02:16:58.527Z,16.93
2019-01-18T02:19:28.435Z,16.60
2019-01-18T02:21:58.450Z,16.47
2019-01-18T02:24:28.359Z,15.27
2019-01-18T02:26:58.274Z,19.40
2019-01-18T02:29:28.488Z,15.27
2019-01-18T02:31:58.604Z,18.93
2019-01-18T02:34:28.506Z,17.23
2019-01-18T02:36:58.912Z,23.10
2019-01-18T02:39:28.827Z,17.60
2019-01-18T02:41:58.934Z,17.00
2019-01-18T02:44:28.956Z,14.57
2019-01-18T02:46:59.154Z,13.87
2019-01-18T02:49:29.069Z,11.80
2019-01-18T02:51:58.980Z,10.47
2019-01-18T02:54:28.901Z,9.07
2019-01-18T02:56:58.813Z,10.13
2019-01-18T02:59:28.919Z,10.13
2019-01-18T03:01:58.929Z,11.17
2019-01-18T03:04:29.044Z,11.63
2019-01-18T03:06:58.954Z,9.77
2019-01-18T03:09:28.868Z,13.17
2019-01-18T03:11:58.781Z,13.43
2019-01-18T03:14:28.697Z,10.63
2019-01-18T03:16:59.103Z,11.37
2019-01-18T03:19:29.020Z,9.17
2019-01-18T03:21:59.026Z,9.43
2019-01-18T03:24:29.331Z,9.43
2019-01-18T03:26:59.249Z,13.40
2019-01-18T03:29:29.160Z,8.27
2019-01-18T03:31:59.275Z,9.03
2019-01-18T03:34:29.182Z,9.37
2019-01-18T03:36:59.097Z,10.97
2019-01-18T03:39:29.028Z,10.67
2019-01-18T03:41:58.929Z,14.53
2019-01-18T03:44:28.836Z,18.17
2019-01-18T03:46:58.749Z,14.10
2019-01-18T03:49:28.763Z,19.57
2019-01-18T03:51:58.676Z,18.80
2019-01-18T03:54:28.590Z,20.10
2019-01-18T03:56:58.835Z,18.73
2019-01-18T03:59:28.810Z,23.83
2019-01-18T04:01:58.727Z,22.73
2019-01-18T04:04:28.641Z,23.83
2019-01-18T04:06:58.553Z,18.67
2019-01-18T04:09:28.462Z,14.77
2019-01-18T04:11:58.382Z,16.20
2019-01-18T04:14:28.294Z,15.03
2019-01-18T04:16:58.207Z,18.17
2019-01-18T04:19:28.313Z,17.90
2019-01-18T04:21:58.522Z,21.40
2019-01-18T04:24:28.433Z,23.07
2019-01-18T04:26:58.386Z,25.20
2019-01-18T04:29:28.365Z,25.90
2019-01-18T04:31:58.275Z,27.47
2019-01-18T04:34:28.195Z,21.73
2019-01-18T04:36:58.298Z,22.90
2019-01-18T04:39:28.213Z,15.27
2019-01-18T04:41:58.137Z,18.87
2019-01-18T04:44:28.540Z,27.07
2019-01-18T04:46:58.628Z,19.20
2019-01-18T04:49:28.553Z,16.33
2019-01-18T04:51:58.467Z,19.43
2019-01-18T04:54:28.482Z,27.83
2019-01-18T04:56:58.496Z,27.60
2019-01-18T04:59:28.603Z,24.53
2019-01-18T05:01:58.514Z,22.97
2019-01-18T05:04:28.815Z,22.67
2019-01-18T05:06:59.042Z,23.53
2019-01-18T05:09:28.917Z,22.47
2019-01-18T05:11:58.956Z,21.10
2019-01-18T05:14:28.750Z,25.60
2019-01-18T05:16:58.690Z,23.67
2019-01-18T05:19:28.601Z,21.03
2019-01-18T05:21:58.394Z,18.80
2019-01-18T05:24:28.633Z,19.40
2019-01-18T05:26:58.632Z,20.23
2019-01-18T05:29:28.550Z,19.43
2019-01-18T05:31:58.476Z,17.33
2019-01-18T05:34:28.456Z,22.17
2019-01-18T05:36:58.582Z,20.50
2019-01-18T05:39:28.393Z,20.80
2019-01-18T05:41:58.312Z,23.57
2019-01-18T05:44:28.609Z,23.73
2019-01-18T05:46:58.730Z,24.37
2019-01-18T05:49:28.937Z,28.50
2019-01-18T05:51:59.048Z,39.33
2019-01-18T05:54:28.958Z,48.60
2019-01-18T05:56:58.872Z,43.93
2019-01-18T05:59:28.905Z,50.93
2019-01-18T06:01:58.802Z,31.77
2019-01-18T06:04:28.717Z,36.20
2019-01-18T06:06:58.723Z,32.00
2019-01-18T06:09:28.637Z,28.37
2019-01-18T06:11:58.552Z,35.97
2019-01-18T06:14:28.352Z,29.83
2019-01-18T06:16:58.281Z,37.80
2019-01-18T06:19:28.193Z,31.50
2019-01-18T06:21:58.215Z,30.57
2019-01-18T06:24:28.023Z,33.97
2019-01-18T06:26:58.031Z,22.50
2019-01-18T06:29:27.950Z,25.37
2019-01-18T06:31:57.959Z,26.03
2019-01-18T06:34:27.873Z,20.67
2019-01-18T06:36:57.883Z,23.40
2019-01-18T06:39:28.486Z,16.37
2019-01-18T06:41:58.399Z,17.63
2019-01-18T06:44:28.312Z,26.90
2019-01-18T06:46:58.279Z,17.57
2019-01-18T06:49:28.436Z,18.23
2019-01-18T06:51:58.347Z,29.33
2019-01-18T06:54:28.559Z,34.43
2019-01-18T06:56:58.471Z,31.43
2019-01-18T06:59:28.580Z,36.27
2019-01-18T07:01:58.603Z,41.73
2019-01-18T07:04:28.506Z,41.80
2019-01-18T07:06:58.418Z,50.47
2019-01-18T07:09:28.717Z,46.87
2019-01-18T07:11:58.643Z,50.80
2019-01-18T07:14:28.554Z,74.43
2019-01-18T07:16:58.563Z,57.47
2019-01-18T07:19:28.481Z,49.07
2019-01-18T07:21:58.389Z,29.07
2019-01-18T07:24:28.500Z,22.80
2019-01-18T07:26:58.512Z,19.77
2019-01-18T07:29:29.706Z,14.57
2019-01-18T07:31:59.717Z,11.57
2019-01-18T07:34:29.726Z,12.37
2019-01-18T07:36:59.940Z,13.07
2019-01-18T07:39:29.856Z,12.03
2019-01-18T07:41:59.862Z,26.80
2019-01-18T07:44:29.777Z,12.87
2019-01-18T07:46:59.788Z,15.23
2019-01-18T07:49:29.903Z,22.73
2019-01-18T07:51:59.813Z,25.53
2019-01-18T07:54:30.220Z,23.73
2019-01-18T07:57:00.134Z,26.50
2019-01-18T07:59:30.049Z,21.33
2019-01-18T08:01:59.955Z,18.20
2019-01-18T08:04:29.971Z,15.87
2019-01-18T08:07:00.180Z,17.10
2019-01-18T08:09:30.158Z,13.63
2019-01-18T08:12:00.100Z,14.90
2019-01-18T08:14:30.117Z,17.23
2019-01-18T08:17:00.028Z,13.73
2019-01-18T08:19:30.094Z,18.87
2019-01-18T08:22:00.251Z,14.70
2019-01-18T08:24:30.163Z,17.73
2019-01-18T08:27:00.076Z,14.00
2019-01-18T08:29:29.986Z,18.13
2019-01-18T08:31:59.900Z,17.13
2019-01-18T08:34:29.852Z,17.67
2019-01-18T08:37:00.121Z,14.20
2019-01-18T08:39:30.036Z,19.80
2019-01-18T08:42:00.049Z,17.10
2019-01-18T08:44:30.158Z,15.00
2019-01-18T08:47:00.077Z,17.33
2019-01-18T08:49:30.083Z,17.93
2019-01-18T08:52:00.140Z,19.50
2019-01-18T08:54:30.108Z,21.53
2019-01-18T08:57:00.020Z,21.00
2019-01-18T08:59:30.137Z,15.83
2019-01-18T09:02:00.045Z,16.30
2019-01-18T09:04:30.253Z,18.67
2019-01-18T09:07:00.559Z,16.53
2019-01-18T09:09:30.470Z,13.73
2019-01-18T09:12:00.385Z,17.07
2019-01-18T09:14:30.397Z,17.77
2019-01-18T09:17:00.409Z,16.30
2019-01-18T09:19:30.322Z,14.33
2019-01-18T09:22:00.238Z,18.23
2019-01-18T09:24:30.148Z,19.67
2019-01-18T09:27:00.262Z,16.97
2019-01-18T09:29:30.470Z,21.33
2019-01-18T09:32:00.380Z,22.47
2019-01-18T09:34:30.294Z,19.83
2019-01-18T09:37:00.210Z,14.87
2019-01-18T09:39:30.238Z,15.37
2019-01-18T09:42:00.139Z,19.23
2019-01-18T09:44:30.238Z,15.63
2019-01-18T09:47:00.160Z,18.50
2019-01-18T09:49:30.467Z,29.67
2019-01-18T09:52:00.770Z,17.43
2019-01-18T09:54:30.881Z,14.10
2019-01-18T09:57:00.792Z,11.90
2019-01-18T09:59:30.903Z,13.10
2019-01-18T10:02:00.820Z,11.60
2019-01-18T10:04:30.831Z,17.50
2019-01-18T10:07:00.762Z,14.13
2019-01-18T10:09:30.952Z,12.23
2019-01-18T10:12:01.156Z,11.03
2019-01-18T10:14:31.071Z,8.40
2019-01-18T10:17:00.997Z,9.53
2019-01-18T10:19:31.094Z,9.97
2019-01-18T10:22:01.008Z,9.40
2019-01-18T10:24:30.922Z,10.23
2019-01-18T10:27:00.835Z,12.23
2019-01-18T10:29:30.855Z,10.23
2019-01-18T10:32:00.761Z,9.77
2019-01-18T10:34:30.675Z,13.47
2019-01-18T10:37:00.588Z,14.23
2019-01-18T10:39:30.659Z,11.00
2019-01-18T10:42:00.611Z,13.43
2019-01-18T10:44:30.819Z,13.13
2019-01-18T10:47:00.833Z,12.07
2019-01-18T10:49:30.850Z,12.73
2019-01-18T10:52:01.051Z,12.80
2019-01-18T10:54:32.145Z,12.70
2019-01-18T10:57:02.382Z,9.27
2019-01-18T10:59:32.364Z,8.00
2019-01-18T11:02:07.243Z,7.17
2019-01-18T11:04:34.258Z,9.00
2019-01-18T11:07:04.058Z,11.07
2019-01-18T11:09:34.181Z,8.57
2019-01-18T11:12:04.096Z,8.43
2019-01-18T11:14:34.008Z,14.13
2019-01-18T11:17:04.024Z,8.53
2019-01-18T11:19:33.937Z,7.80
2019-01-18T11:22:03.949Z,8.37
2019-01-18T11:24:33.915Z,8.47
2019-01-18T11:27:04.569Z,10.13
2019-01-18T11:29:34.766Z,7.17
2019-01-18T11:32:04.679Z,7.47
2019-01-18T11:34:35.794Z,9.77
2019-01-18T11:37:06.233Z,8.93
2019-01-18T11:39:36.744Z,7.33
2019-01-18T11:42:06.794Z,8.60
2019-01-18T11:44:36.705Z,7.17
2019-01-18T11:47:06.620Z,7.30
2019-01-18T11:49:36.727Z,8.53
2019-01-18T11:52:06.742Z,6.37
2019-01-18T11:54:36.950Z,6.20
2019-01-18T11:57:06.964Z,7.70
2019-01-18T11:59:36.880Z,8.43
2019-01-18T12:02:07.383Z,8.00
2019-01-18T12:04:37.296Z,10.17
2019-01-18T12:07:07.206Z,6.30
2019-01-18T12:09:37.120Z,11.30
2019-01-18T12:12:07.331Z,6.70
2019-01-18T12:14:37.337Z,6.93
2019-01-18T12:17:07.743Z,7.87
2019-01-18T12:19:37.669Z,8.73
2019-01-18T12:22:07.768Z,8.50
2019-01-18T12:24:37.682Z,7.67
2019-01-18T12:27:07.596Z,10.63
2019-01-18T12:29:37.566Z,5.97
2019-01-18T12:32:07.814Z,4.90
2019-01-18T12:34:38.794Z,6.40
2019-01-18T12:37:08.903Z,6.23
2019-01-18T12:39:38.834Z,5.50
2019-01-18T12:42:08.750Z,5.50
2019-01-18T12:44:39.152Z,8.43
2019-01-18T12:47:09.265Z,6.40
2019-01-18T12:49:39.176Z,5.00
2019-01-18T12:52:09.380Z,6.80
2019-01-18T12:54:39.688Z,8.50
2019-01-18T12:57:09.600Z,6.13
2019-01-18T12:59:39.514Z,4.73
2019-01-18T13:02:10.108Z,6.00
2019-01-18T13:04:40.359Z,6.97
2019-01-18T13:07:10.338Z,4.97
2019-01-18T13:09:40.645Z,6.10
2019-01-18T13:12:10.556Z,7.07
2019-01-18T13:14:40.469Z,4.93
2019-01-18T13:17:10.382Z,4.67
2019-01-18T13:19:40.492Z,4.93
2019-01-18T13:22:10.406Z,7.63
2019-01-18T13:24:40.327Z,4.80
2019-01-18T13:27:10.726Z,5.40
2019-01-18T13:29:40.638Z,6.53
2019-01-18T13:32:10.552Z,9.00
2019-01-18T13:34:40.660Z,8.03
2019-01-18T13:37:11.464Z,4.57
2019-01-18T13:39:41.372Z,7.30
2019-01-18T13:42:11.285Z,7.30
2019-01-18T13:44:43.689Z,9.23
2019-01-18T13:47:18.262Z,5.57
2019-01-18T13:49:44.564Z,7.63
2019-01-18T13:52:14.582Z,8.33
2019-01-18T13:54:44.791Z,11.90
2019-01-18T13:57:14.701Z,12.30
2019-01-18T13:59:45.107Z,6.97
2019-01-18T14:02:15.143Z,6.93
2019-01-18T14:04:45.427Z,8.50
2019-01-18T14:07:15.628Z,5.20
2019-01-18T14:09:45.424Z,6.23
2019-01-18T14:12:15.360Z,5.43
2019-01-18T14:14:45.762Z,7.00
2019-01-18T14:17:15.674Z,7.37
2019-01-18T14:19:45.686Z,6.77
2019-01-18T14:22:16.294Z,13.57
2019-01-18T14:24:46.210Z,19.17
2019-01-18T14:27:16.212Z,8.67
2019-01-18T14:29:46.325Z,9.40
2019-01-18T14:32:16.633Z,9.03
2019-01-18T14:34:46.970Z,9.17
2019-01-18T14:37:16.951Z,6.70
2019-01-18T14:39:47.057Z,6.77
2019-01-18T14:42:17.268Z,7.57
2019-01-18T14:44:47.672Z,6.93
2019-01-18T14:47:17.583Z,7.93
2019-01-18T14:49:47.503Z,11.63
2019-01-18T14:52:18.001Z,9.87
2019-01-18T14:54:48.212Z,12.00
2019-01-18T14:57:18.319Z,8.33
2019-01-18T14:59:48.233Z,7.73
2019-01-18T15:02:18.146Z,7.27
2019-01-18T15:04:48.757Z,6.37
2019-01-18T15:07:19.057Z,9.97
2019-01-18T15:09:48.970Z,5.37
2019-01-18T15:12:19.097Z,10.03
2019-01-18T15:14:48.991Z,11.50
2019-01-18T15:17:18.907Z,9.70
2019-01-18T15:19:48.909Z,11.97
2019-01-18T15:22:18.829Z,16.43
2019-01-18T15:24:48.843Z,9.70
2019-01-18T15:27:19.047Z,9.07
2019-01-18T15:29:49.060Z,7.27
2019-01-18T15:32:18.974Z,11.73
2019-01-18T15:34:49.451Z,10.03
2019-01-18T15:37:19.684Z,7.43
2019-01-18T15:39:49.600Z,8.37
2019-01-18T15:42:19.498Z,8.50
2019-01-18T15:44:49.448Z,7.90
2019-01-18T15:47:19.536Z,6.97
2019-01-18T15:49:49.861Z,5.73
2019-01-18T15:52:19.755Z,7.13
2019-01-18T15:54:49.674Z,7.13
2019-01-18T15:57:19.586Z,10.27
2019-01-18T15:59:49.497Z,8.53
2019-01-18T16:02:19.603Z,7.73
2019-01-18T16:04:49.814Z,6.67
2019-01-18T16:07:19.735Z,10.30
2019-01-18T16:09:49.741Z,6.13
2019-01-18T16:12:19.650Z,8.37
2019-01-18T16:14:49.771Z,10.43
2019-01-18T16:17:21.050Z,7.30
2019-01-18T16:19:51.159Z,9.37
2019-01-18T16:22:21.094Z,7.83
2019-01-18T16:24:51.285Z,7.47
2019-01-18T16:27:21.197Z,7.03
2019-01-18T16:29:51.110Z,7.67
2019-01-18T16:32:21.815Z,8.10
2019-01-18T16:34:52.021Z,7.40
2019-01-18T16:37:21.845Z,8.20
2019-01-18T16:39:51.746Z,8.27
2019-01-18T16:42:21.659Z,8.13
2019-01-18T16:44:51.870Z,9.03
2019-01-18T16:47:21.783Z,8.67
2019-01-18T16:49:51.892Z,8.50
2019-01-18T16:52:21.804Z,9.23
2019-01-18T16:54:51.914Z,9.57
2019-01-18T16:57:21.830Z,9.27
2019-01-18T16:59:52.036Z,8.87
2019-01-18T17:02:22.218Z,10.83
2019-01-18T17:04:52.163Z,13.10
2019-01-18T17:07:22.078Z,14.10
2019-01-18T17:09:51.996Z,16.00
2019-01-18T17:12:21.899Z,11.77
2019-01-18T17:14:51.915Z,14.93
2019-01-18T17:17:21.823Z,9.27
2019-01-18T17:19:52.233Z,12.37
2019-01-18T17:22:22.501Z,11.63
2019-01-18T17:24:52.447Z,10.00
2019-01-18T17:27:22.362Z,8.23
2019-01-18T17:29:52.764Z,13.20
2019-01-18T17:32:23.176Z,15.50
2019-01-18T17:34:54.455Z,11.13
2019-01-18T17:37:25.362Z,17.33
2019-01-18T17:39:55.957Z,11.27
2019-01-18T17:42:30.285Z,17.20
2019-01-18T17:45:33.541Z,16.57
2019-01-18T17:48:25.861Z,15.37
2019-01-18T17:51:20.939Z,14.97
2019-01-18T17:54:09.787Z,18.03
2019-01-18T17:57:08.207Z,32.93
2019-01-18T17:59:54.258Z,27.30
2019-01-18T18:02:34.617Z,28.60
2019-01-18T18:05:31.370Z,24.07
2019-01-18T18:08:32.836Z,21.90
2019-01-18T18:11:31.061Z,19.60
2019-01-18T18:14:30.078Z,28.27
2019-01-18T18:17:07.411Z,43.57
2019-01-18T18:19:59.587Z,38.53
2019-01-18T18:22:39.926Z,30.03
2019-01-18T18:25:42.815Z,37.60
2019-01-18T18:28:23.272Z,29.67
2019-01-18T18:31:20.049Z,22.60
2019-01-18T18:34:00.380Z,23.53
2019-01-18T18:36:40.134Z,22.03
2019-01-18T18:39:44.741Z,28.77
2019-01-18T18:42:42.011Z,34.10
2019-01-18T18:45:31.259Z,30.70
2019-01-18T18:48:14.455Z,29.47
2019-01-18T18:50:54.877Z,31.23
2019-01-18T18:53:38.084Z,29.90
2019-01-18T18:56:27.342Z,31.10
2019-01-18T18:59:25.761Z,32.87
2019-01-18T19:02:03.248Z,26.47
2019-01-18T19:04:43.778Z,24.63
2019-01-18T19:07:47.020Z,25.27
2019-01-18T19:10:24.436Z,26.10
2019-01-18T19:13:10.827Z,22.90
2019-01-18T19:16:18.390Z,26.53
2019-01-18T19:19:24.975Z,26.30
2019-01-18T19:22:08.061Z,27.07
2019-01-18T19:25:07.631Z,29.57
2019-01-18T19:28:19.547Z,33.03
2019-01-18T19:30:59.643Z,29.30
2019-01-18T19:33:48.911Z,30.03
2019-01-18T19:36:38.045Z,31.07
2019-01-18T19:39:20.876Z,26.87
2019-01-18T19:41:55.237Z,31.30
2019-01-18T19:44:50.994Z,30.73
2019-01-18T19:47:34.492Z,31.00
2019-01-18T19:50:38.513Z,36.60
2019-01-18T19:53:24.602Z,33.60
2019-01-18T19:56:26.344Z,32.47
2019-01-18T19:59:30.576Z,32.90
2019-01-18T20:02:16.907Z,31.70
2019-01-18T20:05:26.559Z,33.37
2019-01-18T20:08:32.906Z,32.07
2019-01-18T20:11:10.097Z,35.53
2019-01-18T20:14:14.223Z,30.43
2019-01-18T20:17:00.257Z,27.83
2019-01-18T20:20:21.454Z,26.43
2019-01-18T20:23:07.808Z,29.53
2019-01-18T20:25:54.151Z,29.37
2019-01-18T20:28:44.621Z,35.00
2019-01-18T20:31:43.512Z,29.93
2019-01-18T20:34:18.530Z,32.10
2019-01-18T20:37:11.166Z,47.07
2019-01-18T20:39:57.863Z,37.57
2019-01-18T20:42:53.379Z,37.90
2019-01-18T20:45:37.043Z,34.17
2019-01-18T20:48:43.432Z,39.53
2019-01-18T20:51:26.807Z,37.43
2019-01-18T20:54:27.393Z,40.17
2019-01-18T20:57:13.579Z,38.60
2019-01-18T21:00:06.347Z,43.97
2019-01-18T21:03:02.712Z,40.37
2019-01-18T21:05:48.240Z,42.30
2019-01-18T21:08:31.650Z,41.80
2019-01-18T21:11:14.961Z,45.43
2019-01-18T21:13:49.626Z,39.27
2019-01-18T21:16:47.446Z,39.97
2019-01-18T21:19:45.898Z,42.73
2019-01-18T21:22:32.042Z,47.73
2019-01-18T21:25:24.238Z,41.60
2019-01-18T21:28:19.985Z,40.57
2019-01-18T21:31:30.295Z,42.47
2019-01-18T21:34:10.575Z,42.10
2019-01-18T21:37:04.771Z,49.77
2019-01-18T21:40:03.442Z,55.07
2019-01-18T21:42:52.554Z,55.13
2019-01-18T21:45:51.138Z,57.20
2019-01-18T21:48:51.145Z,55.83
2019-01-18T21:52:08.381Z,56.70
2019-01-18T21:55:13.019Z,51.27
2019-01-18T21:58:21.789Z,53.73
2019-01-18T22:01:04.956Z,60.07
2019-01-18T22:03:42.410Z,77.87
2019-01-18T22:06:35.067Z,87.57
2019-01-18T22:09:30.178Z,78.83
2019-01-18T22:12:25.436Z,69.93
2019-01-18T22:15:05.350Z,61.20
2019-01-18T22:17:51.590Z,56.20
2019-01-18T22:20:47.135Z,55.60
2019-01-18T22:23:39.658Z,54.10
2019-01-18T22:26:29.306Z,57.30
2019-01-18T22:29:22.030Z,53.67
2019-01-18T22:32:03.724Z,58.07
2019-01-18T22:34:58.984Z,53.93
2019-01-18T22:37:50.936Z,57.73
2019-01-18T22:40:52.518Z,55.80
2019-01-18T22:43:32.674Z,59.73
2019-01-18T22:46:44.442Z,57.53
2019-01-18T22:49:42.632Z,58.13
2019-01-18T22:52:37.066Z,60.47
2019-01-18T22:55:47.567Z,57.63
2019-01-18T22:58:39.798Z,63.80
2019-01-18T23:01:31.929Z,58.73
2019-01-18T23:04:14.939Z,57.80
2019-01-18T23:07:13.249Z,58.13
2019-01-18T23:10:29.846Z,65.23
2019-01-18T23:13:12.968Z,67.67
2019-01-18T23:16:12.947Z,62.97
2019-01-18T23:19:04.954Z,61.20
2019-01-18T23:22:16.835Z,60.47
2019-01-18T23:25:00.704Z,59.50
2019-01-18T23:28:02.488Z,61.73
2019-01-18T23:30:45.394Z,66.57
2019-01-18T23:33:31.295Z,68.10
2019-01-18T23:36:11.262Z,60.00
2019-01-18T23:38:54.227Z,60.87
2019-01-18T23:41:37.329Z,59.57
2019-01-18T23:44:17.769Z,58.73
2019-01-18T23:47:21.096Z,62.37
2019-01-18T23:50:22.600Z,59.37
2019-01-18T23:52:59.973Z,60.47
2019-01-18T23:55:50.607Z,63.33
2019-01-18T23:58:40.079Z,53.43
